Time;durP1;ratioP1;P1;durP2;ratioP2;P2;SDS_P1;SDS_P2;PMS_P1;PMS_P2;Temp;Humidity;BMP_temperature;BMP_pressure;BME280_temperature;BME280_humidity;BME280_pressure;Samples;Min_cycle;Max_cycle;Signal;HPM_P1;HPM_P2
2021/10/14 00:09:39;;;;;;;39.3;34.63333;;;;;;;6.161761;81.75214;99320;;;;
2021/10/14 00:19:40;;;;;;;46.3;39.6;;;;;;;6.132181;81.85661;99316;;;;
2021/10/14 00:29:36;;;;;;;43.5;38.1;;;;;;;6.112143;81.92395;99316;;;;
2021/10/14 00:39:34;;;;;;;43.2;37.95;;;;;;;6.082181;82.09534;99322;;;;
2021/10/14 00:49:33;;;;;;;42.16667;37.3;;;;;;;6.102105;82.14967;99318;;;;
2021/10/14 00:59:31;;;;;;;42;37.6;;;;;;;6.112143;82.32292;99320;;;;
2021/10/14 01:09:29;;;;;;;43.4;38.63334;;;;;;;6.142181;82.37521;99320;;;;
2021/10/14 01:19:32;;;;;;;46.53334;40.36667;;;;;;;6.152067;82.79272;99318;;;;
2021/10/14 01:29:27;;;;;;;46.63334;40.16667;;;;;;;6.1718;82.87208;99322;;;;
2021/10/14 01:39:25;;;;;;;46.03334;39;;;;;;;6.192105;82.40845;99332;;;;
2021/10/14 01:49:24;;;;;;;45.26667;38.43333;;;;;;;6.212105;82.37404;99338;;;;
2021/10/14 01:59:22;;;;;;;45.8;38.46667;;;;;;;6.231838;82.92389;99344;;;;
2021/10/14 02:09:20;;;;;;;43.5;38.9;;;;;;;6.262257;82.60761;99350;;;;
2021/10/14 02:19:19;;;;;;;44.2;39.55;;;;;;;6.192029;82.84024;99352;;;;
2021/10/14 02:29:17;;;;;;;40;34.6;;;;;;;6.132029;82.24237;99352;;;;
2021/10/14 02:39:16;;;;;;;37.8;34.3;;;;;;;6.071799;82.15636;99358;;;;
2021/10/14 02:49:17;;;;;;;32.9;29.4;;;;;;;5.862181;82.0478;99361;;;;
2021/10/14 02:59:13;;;;;;;30.8;27.9;;;;;;;5.7718;81.89752;99367;;;;
2021/10/14 03:09:11;;;;;;;36.4;29.2;;;;;;;5.6518;81.76609;99371;;;;
2021/10/14 03:19:10;;;;;;;32.65;27.6;;;;;;;5.5018;81.98049;99375;;;;
2021/10/14 03:29:08;;;;;;;33.5;28.13333;;;;;;;5.182181;81.35706;99373;;;;
2021/10/14 03:39:06;;;;;;;36.9;32.9;;;;;;;4.912105;81.80624;99385;;;;
2021/10/14 03:49:05;;;;;;;36.3;32.55;;;;;;;5.0818;82.96564;99397;;;;
2021/10/14 03:59:03;;;;;;;35.1;30.96667;;;;;;;5.172143;82.83183;99399;;;;
2021/10/14 04:09:02;;;;;;;31.5;28.3;;;;;;;5.231723;82.44047;99401;;;;
2021/10/14 04:28:58;;;;;;;28.2;25.3;;;;;;;5.332143;81.64574;99422;;;;
2021/10/14 04:48:55;;;;;;;31.25;27.3;;;;;;;5.441838;81.11393;99446;;;;
2021/10/14 04:58:54;;;;;;;30.8;27.2;;;;;;;5.472181;80.59977;99453;;;;
2021/10/14 05:08:52;;;;;;;32.6;29.1;;;;;;;5.5018;80.62061;99455;;;;
2021/10/14 05:18:52;;;;;;;32.9;29.4;;;;;;;5.571684;80.37969;99461;;;;
2021/10/14 05:28:49;;;;;;;33.25;29.4;;;;;;;5.641838;80.29489;99461;;;;
2021/10/14 05:38:48;;;;;;;31.96667;28.33333;;;;;;;5.741876;80.64296;99469;;;;
2021/10/14 05:48:46;;;;;;;30.9;27.06667;;;;;;;5.871684;80.05074;99473;;;;
2021/10/14 06:08:43;;;;;;;32.4;29.2;;;;;;;6.221991;79.59288;99493;;;;
2021/10/14 06:18:42;;;;;;;34.25;30.7;;;;;;;6.2318;79.51212;99497;;;;
2021/10/14 06:28:41;;;;;;;38.4;34.8;;;;;;;6.271991;79.41547;99495;;;;
2021/10/14 06:38:39;;;;;;;35.3;31.1;;;;;;;6.452143;79.10523;99499;;;;
2021/10/14 06:58:37;;;;;;;41.4;36.7;;;;;;;6.8318;78.16856;99508;;;;
2021/10/14 07:08:35;;;;;;;32.8;29.9;;;;;;;7.151684;77.96202;99508;;;;
2021/10/14 07:28:32;;;;;;;31.4;28.3;;;;;;;7.421876;76.01279;99510;;;;
2021/10/14 07:48:29;;;;;;;32.4;28.3;;;;;;;7.492181;75.00676;99500;;;;
2021/10/14 07:58:28;;;;;;;32.7;25.7;;;;;;;7.761799;74.97707;99499;;;;
2021/10/14 08:08:27;;;;;;;32;26;;;;;;;7.892295;73.48146;99493;;;;
2021/10/14 08:18:25;;;;;;;30.3;27.2;;;;;;;8.092143;73.40883;99493;;;;
2021/10/14 08:28:26;;;;;;;33.2;29.6;;;;;;;8.511799;72.59992;99489;;;;
2021/10/14 08:38:23;;;;;;;27.9;23.85;;;;;;;8.561991;71.06719;99493;;;;
2021/10/14 08:48:22;;;;;;;13.2;11.5;;;;;;;8.791838;69.4132;99489;;;;
2021/10/14 08:58:21;;;;;;;14.4;12.2;;;;;;;9.091838;68.35772;99487;;;;
2021/10/14 09:08:19;;;;;;;16.1;12.1;;;;;;;9.582256;68.74867;99489;;;;
2021/10/14 09:18:18;;;;;;;16.4;12.9;;;;;;;9.981876;66.3268;99487;;;;
2021/10/14 09:28:17;;;;;;;15.6;12.7;;;;;;;10.30203;64.79866;99479;;;;
2021/10/14 09:38:16;;;;;;;17.1;11.05;;;;;;;10.78214;63.61388;99477;;;;
2021/10/14 09:48:19;;;;;;;10.1;7.5;;;;;;;10.52184;60.36268;99479;;;;
2021/10/14 09:58:14;;;;;;;11.8;7.1;;;;;;;11.05;58.951;99473;;;;
2021/10/14 10:08:13;;;;;;;12.8;10.3;;;;;;;11.32218;59.31585;99475;;;;
2021/10/14 10:18:13;;;;;;;10.9;8.6;;;;;;;11.41226;56.26817;99477;;;;
2021/10/14 10:28:12;;;;;;;10.6;5.5;;;;;;;12.35188;57.48725;99467;;;;
2021/10/14 10:38:11;;;;;;;6.6;4.2;;;;;;;12.56195;53.5257;99438;;;;
2021/10/14 10:48:10;;;;;;;7;4.2;;;;;;;13.07211;50.10513;99436;;;;
2021/10/14 10:58:10;;;;;;;5.3;3.9;;;;;;;12.75214;48.9679;99422;;;;
2021/10/14 11:08:09;;;;;;;6.9;4;;;;;;;12.9218;50.75667;99410;;;;
2021/10/14 11:18:11;;;;;;;9.9;5.3;;;;;;;12.65172;50.56799;99403;;;;
2021/10/14 11:28:07;;;;;;;9.8;7.4;;;;;;;12.86195;53.64984;99391;;;;
2021/10/14 11:38:14;;;;;;;6;3.9;;;;;;;12.78191;51.67363;99379;;;;
2021/10/14 11:48:06;;;;;;;7.3;4.7;;;;;;;12.80191;52.88676;99371;;;;
2021/10/14 11:58:05;;;;;;;6.1;3.7;;;;;;;12.57199;49.68232;99369;;;;
2021/10/14 12:08:07;;;;;;;6.7;3.7;;;;;;;12.66169;50.72765;99371;;;;
2021/10/14 12:18:06;;;;;;;3.7;2.1;;;;;;;12.99191;48.98174;99375;;;;
2021/10/14 12:38:03;;;;;;;5.7;1.8;;;;;;;13.63203;44.01072;99358;;;;
2021/10/14 12:48:02;;;;;;;5;2.7;;;;;;;13.15176;48.87565;99352;;;;
2021/10/14 12:58:01;;;;;;;4.1;2.1;;;;;;;12.99172;46.93152;99340;;;;
2021/10/14 13:08:01;;;;;;;5.7;2.6;;;;;;;13.16184;49.16646;99334;;;;
2021/10/14 13:18:00;;;;;;;5;2.2;;;;;;;13.47184;46.51361;99314;;;;
2021/10/14 13:28:00;;;;;;;5.4;2.3;;;;;;;13.45211;50.17671;99303;;;;
2021/10/14 13:37:59;;;;;;;5.85;2.55;;;;;;;13.42199;47.12875;99291;;;;
2021/10/14 13:47:59;;;;;;;5.366667;2.5;;;;;;;13.14211;44.28204;99289;;;;
2021/10/14 13:57:58;;;;;;;4.3;2.7;;;;;;;13.23;48.034;99281;;;;
2021/10/14 14:07:57;;;;;;;4.05;2.4;;;;;;;13.15172;45.86243;99285;;;;
2021/10/14 14:28:06;;;;;;;4.6;2.5;;;;;;;12.49226;47.80714;99263;;;;
2021/10/14 14:37:55;;;;;;;4.866667;2.666667;;;;;;;11.96184;48.68119;99263;;;;
2021/10/14 14:47:56;;;;;;;7.8;4;;;;;;;11.6221;50.45905;99255;;;;
2021/10/14 14:57:54;;;;;;;6;4.3;;;;;;;11.26214;51.94178;99259;;;;
2021/10/14 15:07:53;;;;;;;6.2;3.5;;;;;;;10.83191;55.65271;99265;;;;
2021/10/14 15:17:52;;;;;;;7.1;3.3;;;;;;;10.63172;56.02756;99259;;;;
2021/10/14 15:27:51;;;;;;;6.75;3.8;;;;;;;10.31191;57.23594;99253;;;;
2021/10/14 15:37:52;;;;;;;6.733334;3.7;;;;;;;10.08214;58.72764;99265;;;;
2021/10/14 15:47:50;;;;;;;6.800001;4.566667;;;;;;;9.862105;58.76137;99261;;;;
2021/10/14 15:57:48;;;;;;;14.6;8.9;;;;;;;9.632257;58.78271;99259;;;;
2021/10/14 16:07:47;;;;;;;10.7;9.1;;;;;;;9.351761;60.6436;99257;;;;
2021/10/14 16:17:46;;;;;;;12.9;9.3;;;;;;;9.05;59.86;99265;;;;
2021/10/14 16:27:45;;;;;;;16.3;14.7;;;;;;;8.671914;61.78152;99251;;;;
2021/10/14 16:37:43;;;;;;;15.9;13.8;;;;;;;8.191723;63.91261;99259;;;;
2021/10/14 16:47:44;;;;;;;15.56667;13.63333;;;;;;;7.872143;63.71555;99263;;;;
2021/10/14 16:57:41;;;;;;;18.1;14.2;;;;;;;7.612181;65.83174;99275;;;;
2021/10/14 17:07:41;;;;;;;23.1;20;;;;;;;7.322105;66.29039;99279;;;;
2021/10/14 17:17:39;;;;;;;22.7;19.4;;;;;;;7.132257;67.40401;99273;;;;
2021/10/14 17:37:37;;;;;;;20.6;18.6;;;;;;;7.001723;68.29642;99261;;;;
2021/10/14 17:47:38;;;;;;;21;17.75;;;;;;;6.991876;68.05681;99261;;;;
2021/10/14 17:57:32;;;;;;;21;17.4;;;;;;;7.051761;67.9977;99265;;;;
2021/10/14 18:07:44;;;;;;;27.6;18.5;;;;;;;7.2;66.375;99277;;;;
2021/10/14 18:47:25;;;;;;;20.3;14.2;;;;;;;7.1718;66.70447;99273;;;;
2021/10/14 18:57:23;;;;;;;22.5;17.05;;;;;;;7.071952;66.94705;99261;;;;
2021/10/14 19:07:37;;;;;;;22;17.66667;;;;;;;6.921838;67.23942;99261;;;;
2021/10/14 19:17:24;;;;;;;18.9;16.9;;;;;;;6.902219;67.69411;99265;;;;
2021/10/14 20:27:10;;;;;;;16.7;15;;;;;;;7.502181;65.89267;99238;;;;
2021/10/14 20:37:08;;;;;;;16.75;13.25;;;;;;;7.692067;64.52032;99234;;;;
2021/10/14 20:47:07;;;;;;;13.1;9.8;;;;;;;7.881876;64.13753;99226;;;;
2021/10/14 21:01:48;;;;;;;12.7;10;;;;;;;7.902181;63.50485;99228;;;;
2021/10/14 21:07:04;;;;;;;12.6;9.333333;;;;;;;7.941915;64.14908;99218;;;;
2021/10/14 21:17:03;;;;;;;12.2;8.8;;;;;;;7.66;63.967;99222;;;;
2021/10/14 21:27:11;;;;;;;11.45;8.700001;;;;;;;7.522143;65.07617;99220;;;;
2021/10/14 21:37:05;;;;;;;10.8;7.8;;;;;;;7.361684;66.06888;99218;;;;
2021/10/14 21:46:58;;;;;;;12.9;8.3;;;;;;;7.182105;66.87527;99216;;;;
2021/10/14 21:56:57;;;;;;;12.75;8.700001;;;;;;;7.152219;67.28011;99216;;;;
2021/10/14 22:06:56;;;;;;;11.33333;8.033334;;;;;;;7.101838;67.64548;99214;;;;
2021/10/14 22:16:54;;;;;;;9.9;6.6;;;;;;;7.042219;68.29806;99206;;;;
2021/10/14 22:26:53;;;;;;;9.25;6.55;;;;;;;7.212067;68.4299;99196;;;;
2021/10/14 22:36:51;;;;;;;9.133333;6.266666;;;;;;;7.411838;68.17715;99200;;;;
2021/10/14 22:46:50;;;;;;;9.466666;6.299999;;;;;;;7.562143;67.86116;99193;;;;
2021/10/14 22:56:49;;;;;;;9.166667;5.799999;;;;;;;7.63199;67.94445;99196;;;;
2021/10/14 23:06:50;;;;;;;8.8;5.866666;;;;;;;7.742219;68.52821;99185;;;;
2021/10/14 23:16:52;;;;;;;9.133334;5;;;;;;;7.881876;68.50952;99173;;;;
2021/10/14 23:26:51;;;;;;;6.7;4.9;;;;;;;8.091838;68.50072;99169;;;;
2021/10/14 23:36:43;;;;;;;7.3;5.25;;;;;;;8.172067;68.44276;99171;;;;
2021/10/14 23:46:42;;;;;;;7.300001;5.133333;;;;;;;8.231761;69.09586;99167;;;;
2021/10/14 23:56:41;;;;;;;8.033334;5.433333;;;;;;;8.361838;68.54725;99167;;;;
